sensor_id;sensor_type;location;lat;lon;timestamp;P1;durP1;ratioP1;P2;durP2;ratioP2
15126;SDS011;7664;52.008;4.748;2024-01-16T00:00:11;9.50;;;1.60;;
15126;SDS011;7664;52.008;4.748;2024-01-16T00:02:40;10.38;;;2.25;;
15126;SDS011;7664;52.008;4.748;2024-01-16T00:05:10;5.22;;;1.55;;
15126;SDS011;7664;52.008;4.748;2024-01-16T00:07:40;4.05;;;1.33;;
15126;SDS011;7664;52.008;4.748;2024-01-16T00:10:09;2.22;;;1.17;;
15126;SDS011;7664;52.008;4.748;2024-01-16T00:12:38;6.10;;;1.42;;
15126;SDS011;7664;52.008;4.748;2024-01-16T00:15:08;7.70;;;1.35;;
15126;SDS011;7664;52.008;4.748;2024-01-16T00:17:38;4.65;;;1.05;;
15126;SDS011;7664;52.008;4.748;2024-01-16T00:20:07;5.22;;;1.35;;
15126;SDS011;7664;52.008;4.748;2024-01-16T00:22:38;4.70;;;1.17;;
15126;SDS011;7664;52.008;4.748;2024-01-16T00:25:09;3.05;;;1.20;;
15126;SDS011;7664;52.008;4.748;2024-01-16T00:27:40;5.78;;;1.67;;
15126;SDS011;7664;52.008;4.748;2024-01-16T00:30:09;4.80;;;1.40;;
15126;SDS011;7664;52.008;4.748;2024-01-16T00:32:42;1.83;;;1.20;;
15126;SDS011;7664;52.008;4.748;2024-01-16T00:35:11;9.48;;;1.25;;
15126;SDS011;7664;52.008;4.748;2024-01-16T00:37:39;5.38;;;1.58;;
15126;SDS011;7664;52.008;4.748;2024-01-16T00:40:08;6.00;;;1.27;;
15126;SDS011;7664;52.008;4.748;2024-01-16T00:42:37;5.53;;;1.05;;
15126;SDS011;7664;52.008;4.748;2024-01-16T00:45:08;4.15;;;0.98;;
15126;SDS011;7664;52.008;4.748;2024-01-16T00:47:41;6.07;;;1.63;;
15126;SDS011;7664;52.008;4.748;2024-01-16T00:50:11;5.47;;;0.95;;
15126;SDS011;7664;52.008;4.748;2024-01-16T00:52:39;8.05;;;1.35;;
15126;SDS011;7664;52.008;4.748;2024-01-16T00:55:10;1.52;;;0.85;;
15126;SDS011;7664;52.008;4.748;2024-01-16T00:57:39;2.22;;;0.80;;
15126;SDS011;7664;52.008;4.748;2024-01-16T01:00:08;8.48;;;1.35;;
15126;SDS011;7664;52.008;4.748;2024-01-16T01:02:38;2.05;;;0.68;;
15126;SDS011;7664;52.008;4.748;2024-01-16T01:05:08;5.47;;;1.58;;
15126;SDS011;7664;52.008;4.748;2024-01-16T01:07:37;10.63;;;0.80;;
15126;SDS011;7664;52.008;4.748;2024-01-16T01:10:06;5.82;;;1.30;;
15126;SDS011;7664;52.008;4.748;2024-01-16T01:12:37;1.27;;;0.60;;
15126;SDS011;7664;52.008;4.748;2024-01-16T01:15:08;9.20;;;2.20;;
15126;SDS011;7664;52.008;4.748;2024-01-16T01:17:37;7.70;;;1.83;;
15126;SDS011;7664;52.008;4.748;2024-01-16T01:20:10;5.63;;;1.02;;
15126;SDS011;7664;52.008;4.748;2024-01-16T01:22:39;1.23;;;0.60;;
15126;SDS011;7664;52.008;4.748;2024-01-16T01:25:10;5.75;;;0.85;;
15126;SDS011;7664;52.008;4.748;2024-01-16T01:27:41;3.15;;;0.60;;
15126;SDS011;7664;52.008;4.748;2024-01-16T01:30:10;2.83;;;0.50;;
15126;SDS011;7664;52.008;4.748;2024-01-16T01:32:45;1.58;;;0.68;;
15126;SDS011;7664;52.008;4.748;2024-01-16T01:35:16;3.78;;;1.23;;
15126;SDS011;7664;52.008;4.748;2024-01-16T01:37:46;5.65;;;0.75;;
15126;SDS011;7664;52.008;4.748;2024-01-16T01:40:16;3.95;;;0.82;;
15126;SDS011;7664;52.008;4.748;2024-01-16T01:42:45;1.00;;;0.65;;
15126;SDS011;7664;52.008;4.748;2024-01-16T01:45:17;2.10;;;0.82;;
15126;SDS011;7664;52.008;4.748;2024-01-16T01:47:46;2.17;;;0.63;;
15126;SDS011;7664;52.008;4.748;2024-01-16T01:50:16;6.40;;;0.98;;
15126;SDS011;7664;52.008;4.748;2024-01-16T01:52:47;4.65;;;0.77;;
15126;SDS011;7664;52.008;4.748;2024-01-16T01:55:16;2.63;;;1.08;;
15126;SDS011;7664;52.008;4.748;2024-01-16T01:57:45;4.03;;;1.08;;
15126;SDS011;7664;52.008;4.748;2024-01-16T02:00:14;1.08;;;0.60;;
15126;SDS011;7664;52.008;4.748;2024-01-16T02:02:44;1.50;;;0.60;;
15126;SDS011;7664;52.008;4.748;2024-01-16T02:05:13;3.50;;;0.88;;
15126;SDS011;7664;52.008;4.748;2024-01-16T02:07:43;0.82;;;0.68;;
15126;SDS011;7664;52.008;4.748;2024-01-16T02:10:16;5.75;;;0.85;;
15126;SDS011;7664;52.008;4.748;2024-01-16T02:12:49;1.23;;;0.50;;
15126;SDS011;7664;52.008;4.748;2024-01-16T02:15:22;2.20;;;0.55;;
15126;SDS011;7664;52.008;4.748;2024-01-16T02:17:51;1.05;;;0.60;;
15126;SDS011;7664;52.008;4.748;2024-01-16T02:20:20;1.02;;;0.70;;
15126;SDS011;7664;52.008;4.748;2024-01-16T02:22:50;0.93;;;0.43;;
15126;SDS011;7664;52.008;4.748;2024-01-16T02:25:22;4.38;;;1.00;;
15126;SDS011;7664;52.008;4.748;2024-01-16T02:27:50;2.72;;;0.63;;
15126;SDS011;7664;52.008;4.748;2024-01-16T02:30:19;1.27;;;0.45;;
15126;SDS011;7664;52.008;4.748;2024-01-16T02:32:47;3.00;;;0.82;;
15126;SDS011;7664;52.008;4.748;2024-01-16T02:35:16;1.77;;;0.63;;
15126;SDS011;7664;52.008;4.748;2024-01-16T02:37:46;3.47;;;0.80;;
15126;SDS011;7664;52.008;4.748;2024-01-16T02:40:14;3.85;;;0.90;;
15126;SDS011;7664;52.008;4.748;2024-01-16T02:42:45;0.70;;;0.52;;
15126;SDS011;7664;52.008;4.748;2024-01-16T02:45:14;1.00;;;0.57;;
15126;SDS011;7664;52.008;4.748;2024-01-16T02:47:43;2.65;;;0.88;;
15126;SDS011;7664;52.008;4.748;2024-01-16T02:50:12;3.00;;;0.88;;
15126;SDS011;7664;52.008;4.748;2024-01-16T02:52:40;2.25;;;0.88;;
15126;SDS011;7664;52.008;4.748;2024-01-16T02:55:09;7.15;;;1.10;;
15126;SDS011;7664;52.008;4.748;2024-01-16T02:57:38;0.63;;;0.43;;
15126;SDS011;7664;52.008;4.748;2024-01-16T03:00:09;3.67;;;0.98;;
15126;SDS011;7664;52.008;4.748;2024-01-16T03:02:37;1.63;;;0.73;;
15126;SDS011;7664;52.008;4.748;2024-01-16T03:05:06;2.47;;;0.70;;
15126;SDS011;7664;52.008;4.748;2024-01-16T03:07:36;4.00;;;0.90;;
15126;SDS011;7664;52.008;4.748;2024-01-16T03:10:05;4.57;;;0.70;;
15126;SDS011;7664;52.008;4.748;2024-01-16T03:12:34;2.42;;;0.80;;
15126;SDS011;7664;52.008;4.748;2024-01-16T03:15:03;2.47;;;0.88;;
15126;SDS011;7664;52.008;4.748;2024-01-16T03:17:33;1.00;;;0.45;;
15126;SDS011;7664;52.008;4.748;2024-01-16T03:20:02;1.45;;;0.80;;
15126;SDS011;7664;52.008;4.748;2024-01-16T03:22:31;6.13;;;0.70;;
15126;SDS011;7664;52.008;4.748;2024-01-16T03:25:00;2.63;;;0.70;;
15126;SDS011;7664;52.008;4.748;2024-01-16T03:27:29;2.05;;;0.63;;
15126;SDS011;7664;52.008;4.748;2024-01-16T03:29:57;2.40;;;1.02;;
15126;SDS011;7664;52.008;4.748;2024-01-16T03:32:26;2.03;;;0.95;;
15126;SDS011;7664;52.008;4.748;2024-01-16T03:34:57;1.00;;;0.90;;
15126;SDS011;7664;52.008;4.748;2024-01-16T03:37:26;1.77;;;1.05;;
15126;SDS011;7664;52.008;4.748;2024-01-16T03:39:54;4.10;;;0.95;;
15126;SDS011;7664;52.008;4.748;2024-01-16T03:42:23;0.82;;;0.80;;
15126;SDS011;7664;52.008;4.748;2024-01-16T03:44:52;3.22;;;0.93;;
15126;SDS011;7664;52.008;4.748;2024-01-16T03:47:21;1.50;;;1.05;;
15126;SDS011;7664;52.008;4.748;2024-01-16T03:49:50;0.82;;;0.52;;
15126;SDS011;7664;52.008;4.748;2024-01-16T03:52:22;1.73;;;0.90;;
15126;SDS011;7664;52.008;4.748;2024-01-16T03:54:51;4.20;;;0.88;;
15126;SDS011;7664;52.008;4.748;2024-01-16T03:57:22;2.40;;;0.70;;
15126;SDS011;7664;52.008;4.748;2024-01-16T03:59:51;3.83;;;0.90;;
15126;SDS011;7664;52.008;4.748;2024-01-16T04:02:23;2.20;;;1.27;;
15126;SDS011;7664;52.008;4.748;2024-01-16T04:04:51;1.08;;;0.90;;
15126;SDS011;7664;52.008;4.748;2024-01-16T04:07:23;2.42;;;0.88;;
15126;SDS011;7664;52.008;4.748;2024-01-16T04:09:53;1.60;;;0.80;;
15126;SDS011;7664;52.008;4.748;2024-01-16T04:12:21;1.95;;;1.00;;
15126;SDS011;7664;52.008;4.748;2024-01-16T04:14:50;4.07;;;0.98;;
15126;SDS011;7664;52.008;4.748;2024-01-16T04:17:18;3.40;;;1.20;;
15126;SDS011;7664;52.008;4.748;2024-01-16T04:19:48;3.65;;;0.75;;
15126;SDS011;7664;52.008;4.748;2024-01-16T04:22:16;5.95;;;1.35;;
15126;SDS011;7664;52.008;4.748;2024-01-16T04:24:47;4.65;;;1.50;;
15126;SDS011;7664;52.008;4.748;2024-01-16T04:27:15;2.80;;;1.48;;
15126;SDS011;7664;52.008;4.748;2024-01-16T04:29:44;1.90;;;1.08;;
15126;SDS011;7664;52.008;4.748;2024-01-16T04:32:12;1.15;;;0.88;;
15126;SDS011;7664;52.008;4.748;2024-01-16T04:34:41;1.70;;;0.95;;
15126;SDS011;7664;52.008;4.748;2024-01-16T04:37:10;0.85;;;0.60;;
15126;SDS011;7664;52.008;4.748;2024-01-16T04:39:38;0.70;;;0.65;;
15126;SDS011;7664;52.008;4.748;2024-01-16T04:42:08;3.05;;;1.13;;
15126;SDS011;7664;52.008;4.748;2024-01-16T04:44:41;1.00;;;0.75;;
15126;SDS011;7664;52.008;4.748;2024-01-16T04:47:09;2.55;;;1.48;;
15126;SDS011;7664;52.008;4.748;2024-01-16T04:49:39;3.90;;;1.20;;
15126;SDS011;7664;52.008;4.748;2024-01-16T04:52:08;5.30;;;1.40;;
15126;SDS011;7664;52.008;4.748;2024-01-16T04:54:37;4.10;;;1.73;;
15126;SDS011;7664;52.008;4.748;2024-01-16T04:57:06;2.20;;;1.63;;
15126;SDS011;7664;52.008;4.748;2024-01-16T04:59:36;3.50;;;1.42;;
15126;SDS011;7664;52.008;4.748;2024-01-16T05:02:05;2.85;;;1.40;;
15126;SDS011;7664;52.008;4.748;2024-01-16T05:04:36;3.05;;;1.25;;
15126;SDS011;7664;52.008;4.748;2024-01-16T05:07:09;4.82;;;1.90;;
15126;SDS011;7664;52.008;4.748;2024-01-16T05:09:39;7.55;;;1.50;;
15126;SDS011;7664;52.008;4.748;2024-01-16T05:12:08;1.33;;;1.23;;
15126;SDS011;7664;52.008;4.748;2024-01-16T05:14:40;5.43;;;1.40;;
15126;SDS011;7664;52.008;4.748;2024-01-16T05:17:08;3.03;;;1.20;;
15126;SDS011;7664;52.008;4.748;2024-01-16T05:19:39;1.77;;;1.25;;
15126;SDS011;7664;52.008;4.748;2024-01-16T05:22:09;1.83;;;1.40;;
15126;SDS011;7664;52.008;4.748;2024-01-16T05:24:38;1.27;;;1.00;;
15126;SDS011;7664;52.008;4.748;2024-01-16T05:27:07;3.25;;;1.77;;
15126;SDS011;7664;52.008;4.748;2024-01-16T05:29:36;2.15;;;1.30;;
15126;SDS011;7664;52.008;4.748;2024-01-16T05:32:11;2.92;;;1.83;;
15126;SDS011;7664;52.008;4.748;2024-01-16T05:34:41;3.47;;;1.88;;
15126;SDS011;7664;52.008;4.748;2024-01-16T05:37:10;3.08;;;2.22;;
15126;SDS011;7664;52.008;4.748;2024-01-16T05:39:39;2.63;;;1.98;;
15126;SDS011;7664;52.008;4.748;2024-01-16T05:42:09;5.72;;;2.55;;
15126;SDS011;7664;52.008;4.748;2024-01-16T05:44:42;3.78;;;2.20;;
15126;SDS011;7664;52.008;4.748;2024-01-16T05:47:14;2.95;;;1.88;;
15126;SDS011;7664;52.008;4.748;2024-01-16T05:49:42;4.70;;;1.90;;
15126;SDS011;7664;52.008;4.748;2024-01-16T05:52:11;4.88;;;2.88;;
15126;SDS011;7664;52.008;4.748;2024-01-16T05:54:40;5.22;;;3.38;;
15126;SDS011;7664;52.008;4.748;2024-01-16T05:57:09;6.57;;;2.60;;
15126;SDS011;7664;52.008;4.748;2024-01-16T05:59:38;4.90;;;3.00;;
15126;SDS011;7664;52.008;4.748;2024-01-16T06:02:10;4.38;;;2.58;;
15126;SDS011;7664;52.008;4.748;2024-01-16T06:04:41;5.88;;;3.13;;
15126;SDS011;7664;52.008;4.748;2024-01-16T06:07:09;7.10;;;4.15;;
15126;SDS011;7664;52.008;4.748;2024-01-16T06:09:38;7.32;;;2.97;;
15126;SDS011;7664;52.008;4.748;2024-01-16T06:12:10;4.70;;;2.85;;
15126;SDS011;7664;52.008;4.748;2024-01-16T06:14:39;4.88;;;3.45;;
15126;SDS011;7664;52.008;4.748;2024-01-16T06:17:08;9.32;;;3.83;;
15126;SDS011;7664;52.008;4.748;2024-01-16T06:19:37;5.63;;;2.80;;
15126;SDS011;7664;52.008;4.748;2024-01-16T06:22:07;6.65;;;3.00;;
15126;SDS011;7664;52.008;4.748;2024-01-16T06:24:36;4.88;;;3.13;;
15126;SDS011;7664;52.008;4.748;2024-01-16T06:27:05;7.32;;;3.30;;
15126;SDS011;7664;52.008;4.748;2024-01-16T06:29:33;8.18;;;3.85;;
15126;SDS011;7664;52.008;4.748;2024-01-16T06:32:02;4.43;;;3.05;;
15126;SDS011;7664;52.008;4.748;2024-01-16T06:34:31;9.45;;;3.50;;
15126;SDS011;7664;52.008;4.748;2024-01-16T06:37:00;6.88;;;2.95;;
15126;SDS011;7664;52.008;4.748;2024-01-16T06:39:30;5.82;;;2.97;;
15126;SDS011;7664;52.008;4.748;2024-01-16T06:42:00;4.68;;;1.50;;
15126;SDS011;7664;52.008;4.748;2024-01-16T06:44:36;5.72;;;2.10;;
15126;SDS011;7664;52.008;4.748;2024-01-16T06:47:05;7.55;;;1.83;;
15126;SDS011;7664;52.008;4.748;2024-01-16T06:49:38;6.90;;;2.05;;
15126;SDS011;7664;52.008;4.748;2024-01-16T06:52:07;5.85;;;2.08;;
15126;SDS011;7664;52.008;4.748;2024-01-16T06:54:37;7.18;;;2.10;;
15126;SDS011;7664;52.008;4.748;2024-01-16T06:57:08;3.33;;;1.75;;
15126;SDS011;7664;52.008;4.748;2024-01-16T06:59:37;7.40;;;1.52;;
15126;SDS011;7664;52.008;4.748;2024-01-16T07:02:07;3.72;;;1.88;;
15126;SDS011;7664;52.008;4.748;2024-01-16T07:04:36;4.93;;;1.80;;
15126;SDS011;7664;52.008;4.748;2024-01-16T07:07:05;7.97;;;1.60;;
15126;SDS011;7664;52.008;4.748;2024-01-16T07:09:34;5.57;;;2.30;;
15126;SDS011;7664;52.008;4.748;2024-01-16T07:12:05;2.30;;;1.27;;
15126;SDS011;7664;52.008;4.748;2024-01-16T07:14:33;3.40;;;1.75;;
15126;SDS011;7664;52.008;4.748;2024-01-16T07:17:04;4.80;;;1.98;;
15126;SDS011;7664;52.008;4.748;2024-01-16T07:19:35;4.25;;;1.88;;
15126;SDS011;7664;52.008;4.748;2024-01-16T07:22:06;4.10;;;1.40;;
15126;SDS011;7664;52.008;4.748;2024-01-16T07:24:40;5.35;;;1.90;;
15126;SDS011;7664;52.008;4.748;2024-01-16T07:27:11;3.85;;;1.63;;
15126;SDS011;7664;52.008;4.748;2024-01-16T07:29:39;2.45;;;1.00;;
15126;SDS011;7664;52.008;4.748;2024-01-16T07:32:11;4.68;;;1.73;;
15126;SDS011;7664;52.008;4.748;2024-01-16T07:34:39;6.75;;;2.28;;
15126;SDS011;7664;52.008;4.748;2024-01-16T07:37:08;5.05;;;1.58;;
15126;SDS011;7664;52.008;4.748;2024-01-16T07:39:37;3.83;;;1.50;;
15126;SDS011;7664;52.008;4.748;2024-01-16T07:42:06;3.22;;;1.50;;
15126;SDS011;7664;52.008;4.748;2024-01-16T07:44:37;6.82;;;2.20;;
15126;SDS011;7664;52.008;4.748;2024-01-16T07:47:08;5.20;;;1.60;;
15126;SDS011;7664;52.008;4.748;2024-01-16T07:49:37;4.30;;;1.40;;
15126;SDS011;7664;52.008;4.748;2024-01-16T07:52:06;4.20;;;1.55;;
15126;SDS011;7664;52.008;4.748;2024-01-16T07:54:35;5.88;;;1.63;;
15126;SDS011;7664;52.008;4.748;2024-01-16T07:57:03;1.23;;;1.10;;
15126;SDS011;7664;52.008;4.748;2024-01-16T07:59:34;8.25;;;1.65;;
15126;SDS011;7664;52.008;4.748;2024-01-16T08:02:06;3.10;;;1.30;;
15126;SDS011;7664;52.008;4.748;2024-01-16T08:04:36;6.57;;;2.17;;
15126;SDS011;7664;52.008;4.748;2024-01-16T08:07:05;2.05;;;1.20;;
15126;SDS011;7664;52.008;4.748;2024-01-16T08:09:33;1.77;;;1.17;;
15126;SDS011;7664;52.008;4.748;2024-01-16T08:12:02;2.00;;;0.98;;
15126;SDS011;7664;52.008;4.748;2024-01-16T08:14:32;5.70;;;1.38;;
15126;SDS011;7664;52.008;4.748;2024-01-16T08:17:01;7.18;;;1.52;;
15126;SDS011;7664;52.008;4.748;2024-01-16T08:19:34;4.65;;;0.93;;
15126;SDS011;7664;52.008;4.748;2024-01-16T08:22:04;8.25;;;1.77;;
15126;SDS011;7664;52.008;4.748;2024-01-16T08:24:35;7.88;;;1.33;;
15126;SDS011;7664;52.008;4.748;2024-01-16T08:27:04;5.47;;;2.17;;
15126;SDS011;7664;52.008;4.748;2024-01-16T08:29:32;2.33;;;1.08;;
15126;SDS011;7664;52.008;4.748;2024-01-16T08:32:01;4.07;;;1.40;;
15126;SDS011;7664;52.008;4.748;2024-01-16T08:34:30;5.32;;;1.15;;
15126;SDS011;7664;52.008;4.748;2024-01-16T08:37:03;4.45;;;1.35;;
15126;SDS011;7664;52.008;4.748;2024-01-16T08:39:31;3.90;;;1.35;;
15126;SDS011;7664;52.008;4.748;2024-01-16T08:42:00;2.65;;;1.20;;
15126;SDS011;7664;52.008;4.748;2024-01-16T08:44:29;3.72;;;1.20;;
15126;SDS011;7664;52.008;4.748;2024-01-16T08:46:58;2.65;;;1.20;;
15126;SDS011;7664;52.008;4.748;2024-01-16T08:49:28;6.05;;;1.27;;
15126;SDS011;7664;52.008;4.748;2024-01-16T08:51:59;4.60;;;1.10;;
15126;SDS011;7664;52.008;4.748;2024-01-16T08:54:31;5.13;;;1.33;;
15126;SDS011;7664;52.008;4.748;2024-01-16T08:57:00;8.27;;;1.67;;
15126;SDS011;7664;52.008;4.748;2024-01-16T08:59:29;6.10;;;1.63;;
15126;SDS011;7664;52.008;4.748;2024-01-16T09:02:01;20.17;;;2.67;;
15126;SDS011;7664;52.008;4.748;2024-01-16T09:04:30;5.90;;;1.83;;
15126;SDS011;7664;52.008;4.748;2024-01-16T09:07:01;6.07;;;1.15;;
15126;SDS011;7664;52.008;4.748;2024-01-16T09:09:36;2.47;;;1.23;;
15126;SDS011;7664;52.008;4.748;2024-01-16T09:12:05;10.30;;;2.10;;
15126;SDS011;7664;52.008;4.748;2024-01-16T09:14:36;2.33;;;1.17;;
15126;SDS011;7664;52.008;4.748;2024-01-16T09:17:05;4.45;;;1.35;;
15126;SDS011;7664;52.008;4.748;2024-01-16T09:19:35;5.30;;;0.90;;
15126;SDS011;7664;52.008;4.748;2024-01-16T09:22:04;2.88;;;1.42;;
15126;SDS011;7664;52.008;4.748;2024-01-16T09:24:33;4.28;;;1.23;;
15126;SDS011;7664;52.008;4.748;2024-01-16T09:27:06;2.67;;;1.30;;
15126;SDS011;7664;52.008;4.748;2024-01-16T09:29:36;2.85;;;0.90;;
15126;SDS011;7664;52.008;4.748;2024-01-16T09:32:05;3.92;;;1.50;;
15126;SDS011;7664;52.008;4.748;2024-01-16T09:34:34;5.45;;;1.90;;
15126;SDS011;7664;52.008;4.748;2024-01-16T09:37:02;6.80;;;2.20;;
15126;SDS011;7664;52.008;4.748;2024-01-16T09:39:33;4.72;;;2.00;;
15126;SDS011;7664;52.008;4.748;2024-01-16T09:42:06;5.55;;;1.85;;
15126;SDS011;7664;52.008;4.748;2024-01-16T09:44:35;5.97;;;1.80;;
15126;SDS011;7664;52.008;4.748;2024-01-16T09:47:03;3.97;;;1.75;;
15126;SDS011;7664;52.008;4.748;2024-01-16T09:49:34;4.30;;;1.60;;
15126;SDS011;7664;52.008;4.748;2024-01-16T09:52:06;3.50;;;1.80;;
15126;SDS011;7664;52.008;4.748;2024-01-16T09:54:35;4.72;;;2.45;;
15126;SDS011;7664;52.008;4.748;2024-01-16T09:57:04;8.13;;;3.00;;
15126;SDS011;7664;52.008;4.748;2024-01-16T09:59:36;1.52;;;1.42;;
15126;SDS011;7664;52.008;4.748;2024-01-16T10:02:08;4.30;;;1.98;;
15126;SDS011;7664;52.008;4.748;2024-01-16T10:04:39;4.38;;;1.67;;
15126;SDS011;7664;52.008;4.748;2024-01-16T10:07:08;6.72;;;1.70;;
15126;SDS011;7664;52.008;4.748;2024-01-16T10:09:38;4.95;;;1.60;;
15126;SDS011;7664;52.008;4.748;2024-01-16T10:12:07;5.90;;;1.77;;
15126;SDS011;7664;52.008;4.748;2024-01-16T10:14:38;4.43;;;1.90;;
15126;SDS011;7664;52.008;4.748;2024-01-16T10:17:10;5.43;;;2.28;;
15126;SDS011;7664;52.008;4.748;2024-01-16T10:19:49;6.22;;;2.33;;
15126;SDS011;7664;52.008;4.748;2024-01-16T10:22:21;6.68;;;2.15;;
15126;SDS011;7664;52.008;4.748;2024-01-16T10:25:03;5.10;;;1.63;;
15126;SDS011;7664;52.008;4.748;2024-01-16T10:27:32;3.42;;;1.45;;
15126;SDS011;7664;52.008;4.748;2024-01-16T10:30:03;3.47;;;2.00;;
15126;SDS011;7664;52.008;4.748;2024-01-16T10:32:37;5.95;;;1.60;;
15126;SDS011;7664;52.008;4.748;2024-01-16T10:35:07;4.97;;;2.17;;
15126;SDS011;7664;52.008;4.748;2024-01-16T10:37:45;9.60;;;2.08;;
15126;SDS011;7664;52.008;4.748;2024-01-16T10:40:20;3.83;;;2.25;;
15126;SDS011;7664;52.008;4.748;2024-01-16T10:42:57;1.52;;;1.02;;
15126;SDS011;7664;52.008;4.748;2024-01-16T10:45:29;2.63;;;1.27;;
15126;SDS011;7664;52.008;4.748;2024-01-16T10:48:00;3.88;;;1.50;;
15126;SDS011;7664;52.008;4.748;2024-01-16T10:50:31;5.57;;;1.77;;
15126;SDS011;7664;52.008;4.748;2024-01-16T10:53:00;5.28;;;1.67;;
15126;SDS011;7664;52.008;4.748;2024-01-16T10:55:30;4.55;;;1.77;;
15126;SDS011;7664;52.008;4.748;2024-01-16T10:58:01;4.70;;;1.77;;
15126;SDS011;7664;52.008;4.748;2024-01-16T11:00:32;3.28;;;1.50;;
15126;SDS011;7664;52.008;4.748;2024-01-16T11:03:05;4.25;;;2.40;;
15126;SDS011;7664;52.008;4.748;2024-01-16T11:05:35;5.85;;;1.90;;
15126;SDS011;7664;52.008;4.748;2024-01-16T11:08:04;8.30;;;1.85;;
15126;SDS011;7664;52.008;4.748;2024-01-16T11:10:33;9.77;;;2.42;;
15126;SDS011;7664;52.008;4.748;2024-01-16T11:13:02;6.75;;;1.73;;
15126;SDS011;7664;52.008;4.748;2024-01-16T11:15:34;4.15;;;1.70;;
15126;SDS011;7664;52.008;4.748;2024-01-16T11:18:04;8.25;;;2.30;;
15126;SDS011;7664;52.008;4.748;2024-01-16T11:20:34;8.40;;;2.08;;
15126;SDS011;7664;52.008;4.748;2024-01-16T11:23:23;4.50;;;1.88;;
15126;SDS011;7664;52.008;4.748;2024-01-16T11:25:52;4.57;;;1.65;;
15126;SDS011;7664;52.008;4.748;2024-01-16T11:28:20;5.90;;;1.80;;
15126;SDS011;7664;52.008;4.748;2024-01-16T11:30:56;6.35;;;2.30;;
15126;SDS011;7664;52.008;4.748;2024-01-16T11:33:44;5.78;;;1.55;;
15126;SDS011;7664;52.008;4.748;2024-01-16T11:38:56;4.85;;;2.13;;
15126;SDS011;7664;52.008;4.748;2024-01-16T11:44:19;2.67;;;0.95;;
15126;SDS011;7664;52.008;4.748;2024-01-16T11:47:05;6.25;;;1.05;;
15126;SDS011;7664;52.008;4.748;2024-01-16T11:49:35;2.55;;;0.80;;
15126;SDS011;7664;52.008;4.748;2024-01-16T11:52:04;2.50;;;0.60;;
15126;SDS011;7664;52.008;4.748;2024-01-16T11:54:34;3.45;;;0.80;;
15126;SDS011;7664;52.008;4.748;2024-01-16T11:59:59;1.77;;;1.10;;
15126;SDS011;7664;52.008;4.748;2024-01-16T12:02:49;0.70;;;0.50;;
15126;SDS011;7664;52.008;4.748;2024-01-16T12:05:18;3.22;;;1.20;;
15126;SDS011;7664;52.008;4.748;2024-01-16T12:07:46;2.05;;;0.82;;
15126;SDS011;7664;52.008;4.748;2024-01-16T12:10:16;1.50;;;0.70;;
15126;SDS011;7664;52.008;4.748;2024-01-16T12:12:46;3.35;;;1.05;;
15126;SDS011;7664;52.008;4.748;2024-01-16T12:15:16;2.10;;;0.70;;
15126;SDS011;7664;52.008;4.748;2024-01-16T12:17:53;2.40;;;0.70;;
15126;SDS011;7664;52.008;4.748;2024-01-16T12:20:22;4.70;;;1.20;;
15126;SDS011;7664;52.008;4.748;2024-01-16T12:22:56;3.10;;;1.50;;
15126;SDS011;7664;52.008;4.748;2024-01-16T12:25:25;2.13;;;0.57;;
15126;SDS011;7664;52.008;4.748;2024-01-16T12:28:14;2.53;;;0.75;;
15126;SDS011;7664;52.008;4.748;2024-01-16T12:30:58;2.55;;;1.67;;
15126;SDS011;7664;52.008;4.748;2024-01-16T12:33:31;5.00;;;0.73;;
15126;SDS011;7664;52.008;4.748;2024-01-16T12:36:00;2.72;;;0.70;;
15126;SDS011;7664;52.008;4.748;2024-01-16T12:38:31;1.63;;;0.40;;
15126;SDS011;7664;52.008;4.748;2024-01-16T12:41:02;2.63;;;0.80;;
15126;SDS011;7664;52.008;4.748;2024-01-16T12:43:33;1.50;;;0.65;;
15126;SDS011;7664;52.008;4.748;2024-01-16T12:46:03;1.48;;;0.80;;
15126;SDS011;7664;52.008;4.748;2024-01-16T12:48:35;1.05;;;0.60;;
15126;SDS011;7664;52.008;4.748;2024-01-16T12:51:21;3.25;;;0.75;;
15126;SDS011;7664;52.008;4.748;2024-01-16T12:53:51;3.53;;;0.88;;
15126;SDS011;7664;52.008;4.748;2024-01-16T12:56:19;3.92;;;0.55;;
15126;SDS011;7664;52.008;4.748;2024-01-16T12:59:08;1.55;;;0.60;;
15126;SDS011;7664;52.008;4.748;2024-01-16T13:01:39;2.88;;;0.63;;
15126;SDS011;7664;52.008;4.748;2024-01-16T13:04:12;2.10;;;0.90;;
15126;SDS011;7664;52.008;4.748;2024-01-16T13:06:43;3.35;;;0.93;;
15126;SDS011;7664;52.008;4.748;2024-01-16T13:09:13;2.35;;;0.70;;
15126;SDS011;7664;52.008;4.748;2024-01-16T13:11:49;1.10;;;0.68;;
15126;SDS011;7664;52.008;4.748;2024-01-16T13:14:19;5.30;;;0.93;;
15126;SDS011;7664;52.008;4.748;2024-01-16T13:16:49;1.95;;;0.60;;
15126;SDS011;7664;52.008;4.748;2024-01-16T13:19:19;1.58;;;0.50;;
15126;SDS011;7664;52.008;4.748;2024-01-16T13:21:49;0.80;;;0.40;;
15126;SDS011;7664;52.008;4.748;2024-01-16T13:24:17;3.65;;;0.85;;
15126;SDS011;7664;52.008;4.748;2024-01-16T13:26:50;7.75;;;1.10;;
15126;SDS011;7664;52.008;4.748;2024-01-16T13:29:19;2.28;;;1.00;;
15126;SDS011;7664;52.008;4.748;2024-01-16T13:31:47;0.75;;;0.40;;
15126;SDS011;7664;52.008;4.748;2024-01-16T13:34:23;3.60;;;0.70;;
15126;SDS011;7664;52.008;4.748;2024-01-16T13:36:53;1.45;;;0.73;;
15126;SDS011;7664;52.008;4.748;2024-01-16T13:39:42;1.13;;;0.60;;
15126;SDS011;7664;52.008;4.748;2024-01-16T13:42:10;3.55;;;1.02;;
15126;SDS011;7664;52.008;4.748;2024-01-16T13:44:39;8.13;;;1.90;;
15126;SDS011;7664;52.008;4.748;2024-01-16T13:47:10;1.38;;;0.82;;
15126;SDS011;7664;52.008;4.748;2024-01-16T13:49:46;0.85;;;0.60;;
15126;SDS011;7664;52.008;4.748;2024-01-16T13:52:15;1.45;;;0.80;;
15126;SDS011;7664;52.008;4.748;2024-01-16T13:54:46;1.23;;;0.75;;
15126;SDS011;7664;52.008;4.748;2024-01-16T13:57:15;3.72;;;1.05;;
15126;SDS011;7664;52.008;4.748;2024-01-16T13:59:43;3.08;;;0.70;;
15126;SDS011;7664;52.008;4.748;2024-01-16T14:02:12;4.28;;;1.25;;
15126;SDS011;7664;52.008;4.748;2024-01-16T14:04:42;4.50;;;1.27;;
15126;SDS011;7664;52.008;4.748;2024-01-16T14:07:12;1.17;;;0.70;;
15126;SDS011;7664;52.008;4.748;2024-01-16T14:09:41;4.93;;;0.70;;
15126;SDS011;7664;52.008;4.748;2024-01-16T14:12:12;1.60;;;0.80;;
15126;SDS011;7664;52.008;4.748;2024-01-16T14:14:41;3.20;;;0.98;;
15126;SDS011;7664;52.008;4.748;2024-01-16T14:17:10;4.60;;;1.38;;
15126;SDS011;7664;52.008;4.748;2024-01-16T14:19:39;2.22;;;0.82;;
15126;SDS011;7664;52.008;4.748;2024-01-16T14:22:09;9.05;;;1.95;;
15126;SDS011;7664;52.008;4.748;2024-01-16T14:24:39;8.25;;;1.23;;
15126;SDS011;7664;52.008;4.748;2024-01-16T14:27:08;3.10;;;1.23;;
15126;SDS011;7664;52.008;4.748;2024-01-16T14:29:37;4.65;;;1.20;;
15126;SDS011;7664;52.008;4.748;2024-01-16T14:32:08;4.78;;;1.40;;
15126;SDS011;7664;52.008;4.748;2024-01-16T14:34:37;3.17;;;0.70;;
15126;SDS011;7664;52.008;4.748;2024-01-16T14:37:06;3.45;;;0.70;;
15126;SDS011;7664;52.008;4.748;2024-01-16T14:39:35;2.97;;;0.95;;
15126;SDS011;7664;52.008;4.748;2024-01-16T14:42:06;3.75;;;1.70;;
15126;SDS011;7664;52.008;4.748;2024-01-16T14:44:38;3.60;;;0.95;;
15126;SDS011;7664;52.008;4.748;2024-01-16T14:47:08;4.18;;;1.75;;
15126;SDS011;7664;52.008;4.748;2024-01-16T14:49:36;3.20;;;0.80;;
15126;SDS011;7664;52.008;4.748;2024-01-16T14:52:05;0.93;;;0.80;;
15126;SDS011;7664;52.008;4.748;2024-01-16T14:54:34;3.17;;;0.80;;
15126;SDS011;7664;52.008;4.748;2024-01-16T14:57:03;3.55;;;1.40;;
15126;SDS011;7664;52.008;4.748;2024-01-16T14:59:35;2.65;;;1.15;;
15126;SDS011;7664;52.008;4.748;2024-01-16T15:02:03;3.47;;;1.90;;
15126;SDS011;7664;52.008;4.748;2024-01-16T15:04:39;7.82;;;2.22;;
15126;SDS011;7664;52.008;4.748;2024-01-16T15:07:13;5.38;;;1.27;;
15126;SDS011;7664;52.008;4.748;2024-01-16T15:09:41;4.80;;;1.15;;
15126;SDS011;7664;52.008;4.748;2024-01-16T15:12:10;3.63;;;1.73;;
15126;SDS011;7664;52.008;4.748;2024-01-16T15:14:41;2.63;;;0.90;;
15126;SDS011;7664;52.008;4.748;2024-01-16T15:17:10;2.00;;;0.90;;
15126;SDS011;7664;52.008;4.748;2024-01-16T15:19:39;3.00;;;1.20;;
15126;SDS011;7664;52.008;4.748;2024-01-16T15:22:08;5.32;;;1.65;;
15126;SDS011;7664;52.008;4.748;2024-01-16T15:24:37;3.83;;;1.38;;
15126;SDS011;7664;52.008;4.748;2024-01-16T15:27:06;3.80;;;1.20;;